createdAt,value
2022-12-01T00:01:12.548Z,6.00
2022-12-01T00:03:39.590Z,6.01
2022-12-01T00:06:10.337Z,6.03
2022-12-01T00:08:37.164Z,6.00
2022-12-01T00:11:09.830Z,6.01
2022-12-01T00:13:36.677Z,5.93
2022-12-01T00:16:16.940Z,5.92
2022-12-01T00:18:43.692Z,5.90
2022-12-01T00:21:15.303Z,5.84
2022-12-01T00:23:49.953Z,5.85
2022-12-01T00:26:17.925Z,5.82
2022-12-01T00:28:48.042Z,5.87
2022-12-01T00:31:14.582Z,5.92
2022-12-01T00:33:41.044Z,5.93
2022-12-01T00:36:07.724Z,5.87
2022-12-01T00:38:34.820Z,5.90
2022-12-01T00:41:02.815Z,5.90
2022-12-01T00:43:29.829Z,5.91
2022-12-01T00:45:56.638Z,5.88
2022-12-01T00:48:23.782Z,5.88
2022-12-01T00:50:52.097Z,5.89
2022-12-01T00:53:24.537Z,5.87
2022-12-01T00:55:52.084Z,5.90
2022-12-01T00:58:18.447Z,5.88
2022-12-01T01:00:44.878Z,5.84
2022-12-01T01:03:11.367Z,5.87
2022-12-01T01:05:42.641Z,5.83
2022-12-01T01:08:10.968Z,5.80
2022-12-01T01:10:42.725Z,5.82
2022-12-01T01:13:09.868Z,5.84
2022-12-01T01:15:36.539Z,5.84
2022-12-01T01:18:03.358Z,5.87
2022-12-01T01:20:29.824Z,5.84
2022-12-01T01:22:56.388Z,5.83
2022-12-01T01:25:22.904Z,5.83
2022-12-01T01:27:49.711Z,5.84
2022-12-01T01:30:16.399Z,5.81
2022-12-01T01:32:42.974Z,5.80
2022-12-01T01:35:09.896Z,5.83
2022-12-01T01:37:36.312Z,5.83
2022-12-01T01:40:02.889Z,5.84
2022-12-01T01:42:29.407Z,5.85
2022-12-01T01:44:57.940Z,5.86
2022-12-01T01:47:32.881Z,5.89
2022-12-01T01:50:06.191Z,5.91
2022-12-01T01:52:35.890Z,5.84
2022-12-01T01:55:02.839Z,5.86
2022-12-01T01:57:33.270Z,5.83
2022-12-01T02:00:07.987Z,5.85
2022-12-01T02:02:40.663Z,5.85
2022-12-01T02:05:13.558Z,5.84
2022-12-01T02:07:41.383Z,5.87
2022-12-01T02:10:11.041Z,5.87
2022-12-01T02:13:16.552Z,5.89
2022-12-01T02:16:01.758Z,5.86
2022-12-01T02:18:35.352Z,5.86
2022-12-01T02:21:20.679Z,5.82
2022-12-01T02:24:08.990Z,5.86
2022-12-01T02:27:01.365Z,5.83
2022-12-01T02:29:27.746Z,5.83
2022-12-01T02:32:04.040Z,5.79
2022-12-01T02:34:41.313Z,5.82
2022-12-01T02:37:41.825Z,5.81
2022-12-01T02:40:31.403Z,5.81
2022-12-01T02:43:07.889Z,5.80
2022-12-01T02:45:54.753Z,5.82
2022-12-01T02:48:28.276Z,5.81
2022-12-01T02:50:59.754Z,5.82
2022-12-01T02:53:26.399Z,5.82
2022-12-01T02:55:55.128Z,5.84
2022-12-01T02:58:22.186Z,5.82
2022-12-01T03:01:06.704Z,5.83
2022-12-01T03:03:45.044Z,5.83
2022-12-01T03:06:23.956Z,5.79
2022-12-01T03:09:09.299Z,5.81
2022-12-01T03:11:56.698Z,5.82
2022-12-01T03:14:34.334Z,5.82
2022-12-01T03:17:07.578Z,5.83
2022-12-01T03:19:41.682Z,5.82
2022-12-01T03:22:20.033Z,5.80
2022-12-01T03:24:49.379Z,5.81
2022-12-01T03:27:18.607Z,5.85
2022-12-01T03:29:48.649Z,5.86
2022-12-01T03:32:50.353Z,5.90
2022-12-01T03:35:23.208Z,5.91
2022-12-01T03:37:57.205Z,5.89
2022-12-01T03:40:27.219Z,5.88
2022-12-01T03:42:59.722Z,5.88
2022-12-01T03:45:56.134Z,5.86
2022-12-01T03:48:24.254Z,5.84
2022-12-01T03:51:16.162Z,5.85
2022-12-01T03:54:07.499Z,5.85
2022-12-01T03:56:43.803Z,5.78
2022-12-01T03:59:11.417Z,5.78
2022-12-01T04:01:38.013Z,5.80
2022-12-01T04:04:11.562Z,5.78
2022-12-01T04:06:40.395Z,5.78
2022-12-01T04:09:06.861Z,5.76
2022-12-01T04:11:51.849Z,5.78
2022-12-01T04:14:18.247Z,5.76
2022-12-01T04:16:44.649Z,5.78
2022-12-01T04:19:11.604Z,5.78
2022-12-01T04:21:38.026Z,5.77
2022-12-01T04:24:04.721Z,5.78
2022-12-01T04:26:34.084Z,5.77
2022-12-01T04:29:01.969Z,5.72
2022-12-01T04:31:29.034Z,5.77
2022-12-01T04:33:56.614Z,5.74
2022-12-01T04:36:29.345Z,5.76
2022-12-01T04:38:55.840Z,5.77
2022-12-01T04:41:22.291Z,5.78
2022-12-01T04:43:48.888Z,5.75
2022-12-01T04:46:15.929Z,5.76
2022-12-01T04:48:43.255Z,5.70
2022-12-01T04:51:09.693Z,5.68
2022-12-01T04:53:37.110Z,5.70
2022-12-01T04:56:04.613Z,5.73
2022-12-01T04:58:32.636Z,5.72
2022-12-01T05:01:04.128Z,5.64
2022-12-01T05:03:30.639Z,5.65
2022-12-01T05:06:05.299Z,5.69
2022-12-01T05:08:32.079Z,5.70
2022-12-01T05:10:58.525Z,5.68
2022-12-01T05:13:25.061Z,5.72
2022-12-01T05:15:51.888Z,5.70
2022-12-01T05:18:18.854Z,5.68
2022-12-01T05:20:57.330Z,5.64
2022-12-01T05:23:28.961Z,5.64
2022-12-01T05:25:55.794Z,5.63
2022-12-01T05:28:24.530Z,5.57
2022-12-01T05:30:51.560Z,5.59
2022-12-01T05:33:18.708Z,5.59
2022-12-01T05:35:45.138Z,5.59
2022-12-01T05:38:11.584Z,5.58
2022-12-01T05:40:38.119Z,5.59
2022-12-01T05:43:05.190Z,5.60
2022-12-01T05:45:31.897Z,5.59
2022-12-01T05:47:59.915Z,5.59
2022-12-01T05:50:28.554Z,5.59
2022-12-01T05:52:55.046Z,5.60
2022-12-01T05:55:21.665Z,5.61
2022-12-01T05:57:48.239Z,5.62
2022-12-01T06:00:15.278Z,5.62
2022-12-01T06:02:42.481Z,5.62
2022-12-01T06:05:09.335Z,5.59
2022-12-01T06:07:36.048Z,5.62
2022-12-01T06:10:03.833Z,5.62
2022-12-01T06:12:30.293Z,5.63
2022-12-01T06:14:56.779Z,5.67
2022-12-01T06:17:23.277Z,5.62
2022-12-01T06:19:49.922Z,5.64
2022-12-01T06:22:16.604Z,5.64
2022-12-01T06:24:43.043Z,5.64
2022-12-01T06:27:09.771Z,5.63
2022-12-01T06:29:48.002Z,5.64
2022-12-01T06:32:14.549Z,5.66
2022-12-01T06:34:41.093Z,5.68
2022-12-01T06:37:07.633Z,5.69
2022-12-01T06:39:34.058Z,5.70
2022-12-01T06:42:00.584Z,5.66
2022-12-01T06:44:27.125Z,5.65
2022-12-01T06:46:53.593Z,5.64
2022-12-01T06:49:20.410Z,5.66
2022-12-01T06:51:46.850Z,5.63
2022-12-01T06:54:14.388Z,5.65
2022-12-01T06:56:43.003Z,5.64
2022-12-01T06:59:09.958Z,5.63
2022-12-01T07:01:36.634Z,5.60
2022-12-01T07:04:03.392Z,5.62
2022-12-01T07:06:31.214Z,5.62
2022-12-01T07:08:58.012Z,5.59
2022-12-01T07:11:24.449Z,5.61
2022-12-01T07:13:55.842Z,5.60
2022-12-01T07:16:22.985Z,5.64
2022-12-01T07:18:50.067Z,5.62
2022-12-01T07:21:17.314Z,5.61
2022-12-01T07:23:43.729Z,5.60
2022-12-01T07:26:15.857Z,5.62
2022-12-01T07:28:43.356Z,5.61
2022-12-01T07:31:12.881Z,5.62
2022-12-01T07:33:39.749Z,5.64
2022-12-01T07:36:07.199Z,5.64
2022-12-01T07:38:35.417Z,5.63
2022-12-01T07:41:06.895Z,5.61
2022-12-01T07:43:33.953Z,5.59
2022-12-01T07:46:08.871Z,5.62
2022-12-01T07:48:39.420Z,5.60
2022-12-01T07:51:10.273Z,5.63
2022-12-01T07:53:37.133Z,5.64
2022-12-01T07:56:08.558Z,5.63
2022-12-01T07:58:35.596Z,5.62
2022-12-01T08:01:12.648Z,5.61
2022-12-01T08:03:40.155Z,5.58
2022-12-01T08:06:07.488Z,5.61
2022-12-01T08:08:35.159Z,5.62
2022-12-01T08:11:04.282Z,5.61
2022-12-01T08:13:31.605Z,5.56
2022-12-01T08:15:58.179Z,5.59
2022-12-01T08:18:24.820Z,5.60
2022-12-01T08:20:51.592Z,5.61
2022-12-01T08:23:17.990Z,5.66
2022-12-01T08:25:44.442Z,5.63
2022-12-01T08:28:10.967Z,5.58
2022-12-01T08:30:37.483Z,5.56
2022-12-01T08:33:03.957Z,5.60
2022-12-01T08:35:30.377Z,5.61
2022-12-01T08:37:56.839Z,5.58
2022-12-01T08:40:23.307Z,5.63
2022-12-01T08:42:52.012Z,5.59
2022-12-01T08:45:18.787Z,5.63
2022-12-01T08:47:45.285Z,5.63
2022-12-01T08:50:12.184Z,5.65
2022-12-01T08:52:38.718Z,5.63
2022-12-01T08:55:06.322Z,5.66
2022-12-01T08:57:33.064Z,5.67
2022-12-01T08:59:59.538Z,5.71
2022-12-01T09:02:26.403Z,5.71
2022-12-01T09:04:52.909Z,5.73
2022-12-01T09:07:26.107Z,5.72
2022-12-01T09:09:53.186Z,5.72
2022-12-01T09:12:19.801Z,5.69
2022-12-01T09:14:48.345Z,5.68
2022-12-01T09:17:16.448Z,5.70
2022-12-01T09:19:43.721Z,5.70
2022-12-01T09:22:11.198Z,5.71
2022-12-01T09:24:38.043Z,5.71
2022-12-01T09:27:04.701Z,5.76
2022-12-01T09:29:32.059Z,5.74
2022-12-01T09:31:59.717Z,5.73
2022-12-01T09:34:27.477Z,5.70
2022-12-01T09:36:58.467Z,5.71
2022-12-01T09:39:25.610Z,5.71
2022-12-01T09:41:58.347Z,5.66
2022-12-01T09:44:39.476Z,5.66
2022-12-01T09:47:12.561Z,5.66
2022-12-01T09:50:00.208Z,5.61
2022-12-01T09:52:29.179Z,5.64
2022-12-01T09:54:59.151Z,5.71
2022-12-01T09:57:38.405Z,5.74
2022-12-01T10:00:13.337Z,5.75
2022-12-01T10:02:46.780Z,5.73
2022-12-01T10:05:21.886Z,5.73
2022-12-01T10:08:03.943Z,5.70
2022-12-01T10:10:34.832Z,5.75
2022-12-01T10:13:01.347Z,5.75
2022-12-01T10:15:46.493Z,5.71
2022-12-01T10:18:42.210Z,5.72
2022-12-01T10:21:35.485Z,5.77
2022-12-01T10:24:14.166Z,5.76
2022-12-01T10:27:23.196Z,5.75
2022-12-01T10:30:01.758Z,5.76
2022-12-01T10:32:52.608Z,5.82
2022-12-01T10:35:25.595Z,5.77
2022-12-01T10:37:59.133Z,5.76
2022-12-01T10:40:27.417Z,5.72
2022-12-01T10:42:54.754Z,5.70
2022-12-01T10:45:43.027Z,5.70
2022-12-01T10:48:19.197Z,5.64
2022-12-01T10:50:47.718Z,5.68
2022-12-01T10:53:23.278Z,5.65
2022-12-01T10:55:57.951Z,5.67
2022-12-01T10:58:24.491Z,5.70
2022-12-01T11:01:01.437Z,5.72
2022-12-01T11:03:32.099Z,5.71
2022-12-01T11:06:01.399Z,5.75
2022-12-01T11:08:54.100Z,5.71
2022-12-01T11:11:36.172Z,5.70
2022-12-01T11:14:07.148Z,5.73
2022-12-01T11:16:42.687Z,5.68
2022-12-01T11:19:26.609Z,5.69
2022-12-01T11:21:57.286Z,5.66
2022-12-01T11:24:43.339Z,5.67
2022-12-01T11:27:21.127Z,5.65
2022-12-01T11:30:00.167Z,5.71
2022-12-01T11:32:32.455Z,5.71
2022-12-01T11:35:14.470Z,5.77
2022-12-01T11:37:54.824Z,5.77
2022-12-01T11:40:44.095Z,5.78
2022-12-01T11:43:23.424Z,5.81
2022-12-01T11:45:50.489Z,5.83
2022-12-01T11:48:29.036Z,5.83
2022-12-01T11:51:10.937Z,5.85
2022-12-01T11:53:40.065Z,5.87
2022-12-01T11:56:17.518Z,5.85
2022-12-01T11:58:46.582Z,5.84
2022-12-01T12:01:33.680Z,5.87
2022-12-01T12:04:28.240Z,5.87
2022-12-01T12:07:00.727Z,5.83
2022-12-01T12:10:08.482Z,5.87
2022-12-01T12:12:40.988Z,5.85
2022-12-01T12:15:43.402Z,5.83
2022-12-01T12:18:09.813Z,5.87
2022-12-01T12:20:40.901Z,5.92
2022-12-01T12:23:16.603Z,5.94
2022-12-01T12:25:59.760Z,5.91
2022-12-01T12:28:44.775Z,5.87
2022-12-01T12:31:22.734Z,5.94
2022-12-01T12:33:58.118Z,5.98
2022-12-01T12:36:24.499Z,6.02
2022-12-01T12:39:10.914Z,6.01
2022-12-01T12:41:45.854Z,6.04
2022-12-01T12:44:24.740Z,6.06
2022-12-01T12:47:04.492Z,6.09
2022-12-01T12:49:52.806Z,6.04
2022-12-01T12:52:34.511Z,6.04
2022-12-01T12:55:19.162Z,6.03
2022-12-01T12:57:55.283Z,6.05
2022-12-01T13:00:25.807Z,6.07
2022-12-01T13:03:22.073Z,6.01
2022-12-01T13:05:56.308Z,6.01
2022-12-01T13:08:33.929Z,5.91
2022-12-01T13:11:15.624Z,5.97
2022-12-01T13:13:54.549Z,5.95
2022-12-01T13:16:27.918Z,5.87
2022-12-01T13:19:03.071Z,5.90
2022-12-01T13:21:37.128Z,5.91
2022-12-01T13:24:05.482Z,5.89
2022-12-01T13:26:35.897Z,5.95
2022-12-01T13:29:06.348Z,5.95
2022-12-01T13:31:43.946Z,5.94
2022-12-01T13:34:20.944Z,5.98
2022-12-01T13:36:52.831Z,5.98
2022-12-01T13:39:26.517Z,5.91
2022-12-01T13:42:02.615Z,5.87
2022-12-01T13:44:37.303Z,5.87
2022-12-01T13:47:15.662Z,5.86
2022-12-01T13:49:51.032Z,5.85
2022-12-01T13:52:28.251Z,5.90
2022-12-01T13:55:07.321Z,5.92
2022-12-01T13:57:56.981Z,5.91
2022-12-01T14:00:29.759Z,5.90
2022-12-01T14:03:15.094Z,5.88
2022-12-01T14:05:57.033Z,5.93
2022-12-01T14:08:33.012Z,5.91
2022-12-01T14:11:23.152Z,5.88
2022-12-01T14:14:25.608Z,5.88
2022-12-01T14:17:02.553Z,5.90
2022-12-01T14:19:29.083Z,5.92
2022-12-01T14:21:57.658Z,5.87
2022-12-01T14:24:36.635Z,5.90
2022-12-01T14:27:07.850Z,5.90
2022-12-01T14:29:42.974Z,5.83
2022-12-01T14:32:09.345Z,5.80
2022-12-01T14:34:39.844Z,5.82
2022-12-01T14:37:16.922Z,5.83
2022-12-01T14:39:57.330Z,5.82
2022-12-01T14:43:01.207Z,5.79
2022-12-01T14:45:35.378Z,5.77
2022-12-01T14:48:21.519Z,5.74
2022-12-01T14:50:51.785Z,5.70
2022-12-01T14:53:25.743Z,5.69
2022-12-01T14:56:18.073Z,5.66
2022-12-01T14:58:53.325Z,5.67
2022-12-01T15:01:22.287Z,5.67
2022-12-01T15:03:51.561Z,5.67
2022-12-01T15:06:20.437Z,5.68
2022-12-01T15:09:31.658Z,5.69
2022-12-01T15:12:01.701Z,5.68
2022-12-01T15:14:37.625Z,5.67
2022-12-01T15:17:06.093Z,5.64
2022-12-01T15:19:38.977Z,5.61
2022-12-01T15:22:17.411Z,5.59
2022-12-01T15:24:44.457Z,5.58
2022-12-01T15:27:32.392Z,5.58
2022-12-01T15:30:04.461Z,5.60
2022-12-01T15:32:34.437Z,5.62
2022-12-01T15:35:01.995Z,5.60
2022-12-01T15:37:32.129Z,5.54
2022-12-01T15:43:03.024Z,5.56
2022-12-01T15:45:29.586Z,5.58
2022-12-01T15:47:56.111Z,5.60
2022-12-01T15:50:29.731Z,5.57
2022-12-01T15:53:02.719Z,5.55
2022-12-01T15:55:34.326Z,5.53
2022-12-01T15:58:02.380Z,5.55
2022-12-01T16:00:28.855Z,5.53
2022-12-01T16:02:58.143Z,5.54
2022-12-01T16:05:28.939Z,5.53
2022-12-01T16:10:42.302Z,5.55
2022-12-01T16:13:46.792Z,5.51
2022-12-01T16:16:21.141Z,5.48
2022-12-01T16:18:56.960Z,5.48
2022-12-01T16:21:24.959Z,5.51
2022-12-01T16:24:03.847Z,5.49
2022-12-01T16:26:31.702Z,5.44
2022-12-01T16:28:58.919Z,5.44
2022-12-01T16:31:27.091Z,5.46
2022-12-01T16:34:13.955Z,5.45
2022-12-01T16:36:45.180Z,5.46
2022-12-01T16:39:13.878Z,5.45
2022-12-01T16:41:44.596Z,5.45
2022-12-01T16:44:28.072Z,5.46
2022-12-01T16:46:55.855Z,5.42
2022-12-01T16:49:22.552Z,5.41
2022-12-01T16:51:55.881Z,5.39
2022-12-01T16:54:23.342Z,5.39
2022-12-01T16:56:49.858Z,5.38
2022-12-01T16:59:16.253Z,5.36
2022-12-01T17:01:42.727Z,5.36
2022-12-01T17:04:09.258Z,5.32
2022-12-01T17:06:36.090Z,5.35
2022-12-01T17:09:02.527Z,5.33
2022-12-01T17:11:28.981Z,5.38
2022-12-01T17:13:55.443Z,5.37
2022-12-01T17:16:21.945Z,5.34
2022-12-01T17:18:48.787Z,5.34
2022-12-01T17:21:15.381Z,5.35
2022-12-01T17:23:41.815Z,5.29
2022-12-01T17:26:12.492Z,5.30
2022-12-01T17:28:39.507Z,5.29
2022-12-01T17:31:07.090Z,5.26
2022-12-01T17:33:34.886Z,5.21
2022-12-01T17:36:07.561Z,5.24
2022-12-01T17:38:38.301Z,5.24
2022-12-01T17:41:16.657Z,5.24
2022-12-01T17:43:43.454Z,5.27
2022-12-01T17:46:12.220Z,5.29
2022-12-01T17:48:43.546Z,5.25
2022-12-01T17:51:11.404Z,5.19
2022-12-01T17:53:41.182Z,5.22
2022-12-01T17:56:09.980Z,5.20
2022-12-01T17:58:36.845Z,5.16
2022-12-01T18:01:04.691Z,5.16
2022-12-01T18:03:31.676Z,5.19
2022-12-01T18:06:00.339Z,5.17
2022-12-01T18:08:30.310Z,5.17
2022-12-01T18:11:01.228Z,5.19
2022-12-01T18:13:28.307Z,5.14
2022-12-01T18:15:54.798Z,5.14
2022-12-01T18:18:21.337Z,5.11
2022-12-01T18:20:47.742Z,5.14
2022-12-01T18:23:14.229Z,5.13
2022-12-01T18:25:40.872Z,5.11
2022-12-01T18:28:07.883Z,5.13
2022-12-01T18:30:34.372Z,5.10
2022-12-01T18:33:01.322Z,5.12
2022-12-01T18:35:31.795Z,5.10
2022-12-01T18:37:58.729Z,5.13
2022-12-01T18:40:25.203Z,5.07
2022-12-01T18:42:51.679Z,5.07
2022-12-01T18:45:21.187Z,5.08
2022-12-01T18:47:48.420Z,5.07
2022-12-01T18:50:14.981Z,5.06
2022-12-01T18:52:41.428Z,5.04
2022-12-01T18:55:08.162Z,5.06
2022-12-01T18:57:34.614Z,5.03
2022-12-01T19:00:01.495Z,5.00
2022-12-01T19:02:28.080Z,4.99
2022-12-01T19:04:54.651Z,5.01
2022-12-01T19:07:26.496Z,4.98
2022-12-01T19:09:55.946Z,4.99
2022-12-01T19:12:22.390Z,4.96
2022-12-01T19:14:49.123Z,4.93
2022-12-01T19:17:15.673Z,4.87
2022-12-01T19:19:42.128Z,4.85
2022-12-01T19:22:08.531Z,4.82
2022-12-01T19:24:34.972Z,4.78
2022-12-01T19:27:01.410Z,4.71
2022-12-01T19:29:28.382Z,4.71
2022-12-01T19:31:55.062Z,4.69
2022-12-01T19:34:21.617Z,4.67
2022-12-01T19:36:49.803Z,4.69
2022-12-01T19:39:16.274Z,4.62
2022-12-01T19:41:42.721Z,4.58
2022-12-01T19:44:09.907Z,4.52
2022-12-01T19:46:36.335Z,4.52
2022-12-01T19:49:03.686Z,4.55
2022-12-01T19:51:35.129Z,4.48
2022-12-01T19:54:02.999Z,4.47
2022-12-01T19:56:29.604Z,4.47
2022-12-01T19:58:57.162Z,4.46
2022-12-01T20:01:23.653Z,4.46
2022-12-01T20:03:52.254Z,4.47
2022-12-01T20:06:24.438Z,4.49
2022-12-01T20:08:51.903Z,4.53
2022-12-01T20:11:18.826Z,4.47
2022-12-01T20:13:47.014Z,4.47
2022-12-01T20:16:24.580Z,4.46
2022-12-01T20:18:52.026Z,4.50
2022-12-01T20:21:28.040Z,4.43
2022-12-01T20:24:00.414Z,4.42
2022-12-01T20:26:31.001Z,4.39
2022-12-01T20:29:04.369Z,4.40
2022-12-01T20:31:33.050Z,4.40
2022-12-01T20:34:02.533Z,4.36
2022-12-01T20:36:29.391Z,4.33
2022-12-01T20:38:56.209Z,4.30
2022-12-01T20:41:22.964Z,4.25
2022-12-01T20:43:49.707Z,4.25
2022-12-01T20:46:16.359Z,4.28
2022-12-01T20:48:43.062Z,4.30
2022-12-01T20:51:11.069Z,4.27
2022-12-01T20:53:37.734Z,4.23
2022-12-01T20:56:06.302Z,4.23
2022-12-01T20:58:37.522Z,4.19
2022-12-01T21:01:16.192Z,4.18
2022-12-01T21:03:44.006Z,4.21
2022-12-01T21:06:12.593Z,4.20
2022-12-01T21:08:40.707Z,4.21
2022-12-01T21:11:18.919Z,4.22
2022-12-01T21:13:46.698Z,4.24
2022-12-01T21:16:16.139Z,4.22
2022-12-01T21:19:00.214Z,4.21
2022-12-01T21:21:29.153Z,4.20
2022-12-01T21:24:07.730Z,4.19
2022-12-01T21:26:36.548Z,4.21
2022-12-01T21:29:27.726Z,4.18
2022-12-01T21:31:59.031Z,4.18
2022-12-01T21:34:28.612Z,4.19
2022-12-01T21:37:02.336Z,4.21
2022-12-01T21:39:30.190Z,4.17
2022-12-01T21:42:06.834Z,4.16
2022-12-01T21:44:37.349Z,4.16
2022-12-01T21:47:17.177Z,4.14
2022-12-01T21:49:45.333Z,4.08
2022-12-01T21:52:39.726Z,4.03
2022-12-01T21:55:15.244Z,3.96
2022-12-01T21:57:44.658Z,3.94
2022-12-01T22:00:30.950Z,3.92
2022-12-01T22:03:15.942Z,3.89
2022-12-01T22:06:01.209Z,3.88
2022-12-01T22:08:35.493Z,3.89
2022-12-01T22:11:11.042Z,3.89
2022-12-01T22:13:37.436Z,3.94
2022-12-01T22:16:04.125Z,3.95
2022-12-01T22:18:39.078Z,3.96
2022-12-01T22:21:24.176Z,3.96
2022-12-01T22:24:00.786Z,3.92
2022-12-01T22:26:27.493Z,3.93
2022-12-01T22:28:58.039Z,3.89
2022-12-01T22:31:25.207Z,3.93
2022-12-01T22:34:02.797Z,3.89
2022-12-01T22:36:31.720Z,3.88
2022-12-01T22:38:58.182Z,3.87
2022-12-01T22:41:26.538Z,3.85
2022-12-01T22:43:57.187Z,3.83
2022-12-01T22:46:34.490Z,3.82
2022-12-01T22:49:19.376Z,3.87
2022-12-01T22:51:50.089Z,3.83
2022-12-01T22:54:16.477Z,3.83
2022-12-01T22:56:47.496Z,3.83
2022-12-01T22:59:23.289Z,3.83
2022-12-01T23:01:54.699Z,3.86
2022-12-01T23:04:39.883Z,3.83
2022-12-01T23:07:20.044Z,3.83
2022-12-01T23:09:46.640Z,3.81
2022-12-01T23:12:13.057Z,3.74
2022-12-01T23:14:51.468Z,3.73
2022-12-01T23:17:28.914Z,3.72
2022-12-01T23:20:29.842Z,3.76
2022-12-01T23:22:58.510Z,3.77
2022-12-01T23:25:25.772Z,3.69
2022-12-01T23:27:53.757Z,3.66
2022-12-01T23:30:21.840Z,3.63
2022-12-01T23:32:57.538Z,3.68
2022-12-01T23:35:24.001Z,3.66
2022-12-01T23:37:52.759Z,3.65
2022-12-01T23:40:22.720Z,3.66
2022-12-01T23:42:49.652Z,3.57
2022-12-01T23:45:26.981Z,3.56
2022-12-01T23:47:55.241Z,3.55
2022-12-01T23:50:25.050Z,3.51
2022-12-01T23:52:51.830Z,3.51
2022-12-01T23:55:25.584Z,3.56
2022-12-01T23:57:52.993Z,3.56
